Time,TemperatureF,DewpointF,PressureIn,WindDirection,WindDirectionDegrees,WindSpeedMPH,WindSpeedGustMPH,Humidity,HourlyPrecipIn,Conditions,Clouds,dailyrainin,SoftwareType,DateUTC
2013-01-23 00:04:00,49.3,44.0,30.19,South,190,0.0,0.0,82,0.00,,,0.00,weatherlink.com 1.10,2013-01-23 06:04:00,
2013-01-23 00:19:00,49.5,44.0,30.19,South,190,0.0,0.0,82,0.00,,,0.00,weatherlink.com 1.10,2013-01-23 06:19:00,
2013-01-23 00:34:00,49.0,44.0,30.19,South,190,0.0,0.0,82,0.00,,,0.00,weatherlink.com 1.10,2013-01-23 06:34:00,
2013-01-23 00:49:00,49.2,44.0,30.19,South,190,0.0,0.0,82,0.00,,,0.00,weatherlink.com 1.10,2013-01-23 06:49:00,
2013-01-23 01:04:00,48.9,44.0,30.19,South,190,0.0,0.0,82,0.00,,,0.00,weatherlink.com 1.10,2013-01-23 07:04:00,
2013-01-23 01:19:00,48.9,44.0,30.19,South,190,0.0,0.0,83,0.00,,,0.00,weatherlink.com 1.10,2013-01-23 07:19:00,
2013-01-23 01:34:00,48.8,44.0,30.19,South,190,0.0,0.0,83,0.00,,,0.00,weatherlink.com 1.10,2013-01-23 07:34:00,
2013-01-23 01:49:00,48.3,43.0,30.19,South,190,0.0,0.0,83,0.00,,,0.00,weatherlink.com 1.10,2013-01-23 07:49:00,
2013-01-23 02:04:00,48.0,44.0,30.19,South,190,0.0,0.0,85,0.00,,,0.00,weatherlink.com 1.10,2013-01-23 08:04:00,
2013-01-23 02:19:00,48.2,44.0,30.19,South,190,0.0,1.0,86,0.00,,,0.00,weatherlink.com 1.10,2013-01-23 08:19:00,
2013-01-23 02:34:00,48.5,44.0,30.19,South,190,0.0,0.0,85,0.00,,,0.00,weatherlink.com 1.10,2013-01-23 08:34:00,
2013-01-23 02:49:00,48.5,44.0,30.19,South,190,0.0,1.0,85,0.00,,,0.00,weatherlink.com 1.10,2013-01-23 08:49:00,
2013-01-23 03:19:00,49.1,46.0,30.19,South,190,0.0,1.0,88,0.00,,,0.00,weatherlink.com 1.10,2013-01-23 09:19:00,
2013-01-23 03:34:00,51.0,48.0,30.19,South,190,0.0,6.0,88,0.00,,,0.00,weatherlink.com 1.10,2013-01-23 09:34:00,
2013-01-23 03:49:00,52.3,48.0,30.19,South,190,3.0,5.0,86,0.00,,,0.00,weatherlink.com 1.10,2013-01-23 09:49:00,
2013-01-23 04:04:00,52.4,48.0,30.18,South,190,1.0,3.0,86,0.00,,,0.00,weatherlink.com 1.10,2013-01-23 10:04:00,
2013-01-23 04:19:00,52.3,49.0,30.18,South,190,2.0,6.0,87,0.00,,,0.00,weatherlink.com 1.10,2013-01-23 10:19:00,
2013-01-23 04:34:00,52.2,48.0,30.18,South,190,0.0,2.0,86,0.00,,,0.00,weatherlink.com 1.10,2013-01-23 10:34:00,
2013-01-23 04:49:00,51.1,47.0,30.18,South,190,0.0,0.0,87,0.00,,,0.00,weatherlink.com 1.10,2013-01-23 10:49:00,
2013-01-23 05:04:00,49.9,47.0,30.19,South,190,0.0,0.0,89,0.00,,,0.00,weatherlink.com 1.10,2013-01-23 11:04:00,
2013-01-23 05:19:00,49.3,47.0,30.19,South,190,0.0,0.0,90,0.00,,,0.00,weatherlink.com 1.10,2013-01-23 11:19:00,
2013-01-23 05:34:00,48.4,45.0,30.19,South,190,0.0,0.0,89,0.00,,,0.00,weatherlink.com 1.10,2013-01-23 11:34:00,
2013-01-23 05:49:00,47.2,44.0,30.19,South,190,0.0,0.0,89,0.00,,,0.00,weatherlink.com 1.10,2013-01-23 11:49:00,
2013-01-23 06:04:00,46.1,43.0,30.20,South,190,0.0,0.0,90,0.00,,,0.00,weatherlink.com 1.10,2013-01-23 12:04:00,
2013-01-23 06:19:00,45.6,43.0,30.20,South,190,0.0,0.0,91,0.00,,,0.00,weatherlink.com 1.10,2013-01-23 12:19:00,
2013-01-23 06:34:00,46.2,44.0,30.20,South,190,0.0,0.0,93,0.00,,,0.00,weatherlink.com 1.10,2013-01-23 12:34:00,
2013-01-23 06:49:00,47.7,46.0,30.20,South,190,0.0,1.0,94,0.00,,,0.00,weatherlink.com 1.10,2013-01-23 12:49:00,
2013-01-23 07:04:00,48.3,47.0,30.21,South,190,0.0,1.0,94,0.00,,,0.00,weatherlink.com 1.10,2013-01-23 13:04:00,
2013-01-23 07:19:00,48.2,46.0,30.21,South,190,0.0,0.0,93,0.00,,,0.00,weatherlink.com 1.10,2013-01-23 13:19:00,
2013-01-23 07:34:00,47.6,46.0,30.21,South,190,0.0,0.0,93,0.00,,,0.00,weatherlink.com 1.10,2013-01-23 13:34:00,
2013-01-23 07:49:00,46.7,45.0,30.22,South,190,0.0,0.0,92,0.00,,,0.00,weatherlink.com 1.10,2013-01-23 13:49:00,
2013-01-23 08:04:00,46.7,45.0,30.22,South,190,0.0,0.0,94,0.00,,,0.00,weatherlink.com 1.10,2013-01-23 14:04:00,
2013-01-23 08:19:00,48.2,47.0,30.22,South,190,0.0,0.0,95,0.00,,,0.00,weatherlink.com 1.10,2013-01-23 14:19:00,
2013-01-23 08:34:00,50.8,50.0,30.23,South,190,0.0,1.0,96,0.00,,,0.00,weatherlink.com 1.10,2013-01-23 14:34:00,
2013-01-23 08:50:00,53.0,52.0,30.23,South,190,0.0,1.0,95,0.00,,,0.00,weatherlink.com 1.10,2013-01-23 14:50:00,
2013-01-23 09:05:00,54.8,52.0,30.23,South,190,0.0,0.0,91,0.00,,,0.00,weatherlink.com 1.10,2013-01-23 15:05:00,
2013-01-23 09:20:00,56.0,52.0,30.24,South,190,0.0,2.0,86,0.00,,,0.00,weatherlink.com 1.10,2013-01-23 15:20:00,
2013-01-23 09:35:00,57.0,52.0,30.24,South,190,0.0,3.0,84,0.00,,,0.00,weatherlink.com 1.10,2013-01-23 15:35:00,
2013-01-23 09:50:00,58.1,53.0,30.25,South,190,0.0,3.0,82,0.00,,,0.00,weatherlink.com 1.10,2013-01-23 15:50:00,
2013-01-23 10:05:00,60.6,54.0,30.25,South,190,0.0,2.0,78,0.00,,,0.00,weatherlink.com 1.10,2013-01-23 16:05:00,
2013-01-23 10:20:00,61.7,54.0,30.25,South,190,2.0,4.0,76,0.00,,,0.00,weatherlink.com 1.10,2013-01-23 16:20:00,
2013-01-23 10:35:00,62.6,54.0,30.25,South,190,1.0,3.0,74,0.00,,,0.00,weatherlink.com 1.10,2013-01-23 16:35:00,
2013-01-23 10:50:00,65.4,55.0,30.24,WSW,254,6.0,9.0,68,0.00,,,0.00,weatherlink.com 1.10,2013-01-23 16:50:00,
2013-01-23 11:05:00,67.1,54.0,30.24,SSW,213,8.0,15.0,64,0.00,,,0.00,weatherlink.com 1.10,2013-01-23 17:05:00,
2013-01-23 11:20:00,68.1,54.0,30.23,SSW,207,7.0,11.0,62,0.00,,,0.00,weatherlink.com 1.10,2013-01-23 17:20:00,
2013-01-23 11:35:00,68.7,55.0,30.23,SW,222,10.0,14.0,62,0.00,,,0.00,weatherlink.com 1.10,2013-01-23 17:35:00,
2013-01-23 11:50:00,69.4,56.0,30.22,WSW,254,6.0,14.0,62,0.00,,,0.00,weatherlink.com 1.10,2013-01-23 17:50:00,
2013-01-23 12:05:00,69.4,56.0,30.22,South,187,7.0,13.0,62,0.00,,,0.00,weatherlink.com 1.10,2013-01-23 18:05:00,
2013-01-23 12:20:00,69.7,56.0,30.20,SW,227,9.0,14.0,61,0.00,,,0.00,weatherlink.com 1.10,2013-01-23 18:20:00,
2013-01-23 12:35:00,69.8,56.0,30.19,SSW,195,8.0,18.0,62,0.00,,,0.00,weatherlink.com 1.10,2013-01-23 18:35:00,
2013-01-23 12:50:00,69.9,56.0,30.18,SSW,213,7.0,17.0,62,0.00,,,0.00,weatherlink.com 1.10,2013-01-23 18:50:00,
2013-01-23 13:05:00,70.5,56.0,30.17,SSW,197,6.0,13.0,61,0.00,,,0.00,weatherlink.com 1.10,2013-01-23 19:05:00,
2013-01-23 13:35:00,71.4,57.0,30.16,South,180,6.0,14.0,60,0.00,,,0.00,weatherlink.com 1.10,2013-01-23 19:35:00,
2013-01-23 13:51:00,72.6,57.0,30.15,SW,218,5.0,11.0,58,0.00,,,0.00,weatherlink.com 1.10,2013-01-23 19:51:00,
2013-01-23 14:06:00,73.3,57.0,30.14,South,175,7.0,10.0,58,0.00,,,0.00,weatherlink.com 1.10,2013-01-23 20:06:00,
2013-01-23 14:21:00,74.2,57.0,30.14,South,175,5.0,10.0,55,0.00,,,0.00,weatherlink.com 1.10,2013-01-23 20:21:00,
2013-01-23 14:36:00,74.1,57.0,30.13,South,180,5.0,12.0,55,0.00,,,0.00,weatherlink.com 1.10,2013-01-23 20:36:00,
2013-01-23 14:51:00,74.7,57.0,30.12,SSW,196,5.0,10.0,54,0.00,,,0.00,weatherlink.com 1.10,2013-01-23 20:51:00,
2013-01-23 15:06:00,76.0,55.0,30.12,SSW,202,7.0,12.0,49,0.00,,,0.00,weatherlink.com 1.10,2013-01-23 21:06:00,
2013-01-23 15:21:00,76.1,56.0,30.12,SW,228,4.0,11.0,50,0.00,,,0.00,weatherlink.com 1.10,2013-01-23 21:21:00,
2013-01-23 15:36:00,76.1,57.0,30.12,South,177,12.0,12.0,51,0.00,,,0.00,weatherlink.com 1.10,2013-01-23 21:36:00,
2013-01-23 15:51:00,76.0,56.0,30.12,SSW,196,4.0,10.0,50,0.00,,,0.00,weatherlink.com 1.10,2013-01-23 21:51:00,
2013-01-23 16:06:00,76.7,55.0,30.12,SSW,204,2.0,7.0,48,0.00,,,0.00,weatherlink.com 1.10,2013-01-23 22:06:00,
2013-01-23 16:21:00,76.0,56.0,30.12,SSW,193,4.0,9.0,50,0.00,,,0.00,weatherlink.com 1.10,2013-01-23 22:21:00,
2013-01-23 16:36:00,75.7,56.0,30.12,SSW,200,4.0,10.0,50,0.00,,,0.00,weatherlink.com 1.10,2013-01-23 22:36:00,
2013-01-23 16:51:00,75.3,55.0,30.11,South,181,7.0,11.0,50,0.00,,,0.00,weatherlink.com 1.10,2013-01-23 22:51:00,
2013-01-23 17:06:00,74.8,55.0,30.11,SSW,213,6.0,12.0,51,0.00,,,0.00,weatherlink.com 1.10,2013-01-23 23:06:00,
2013-01-23 17:21:00,74.2,55.0,30.11,South,184,6.0,10.0,51,0.00,,,0.00,weatherlink.com 1.10,2013-01-23 23:21:00,
2013-01-23 17:36:00,73.3,54.0,30.11,SSW,192,5.0,9.0,52,0.00,,,0.00,weatherlink.com 1.10,2013-01-23 23:36:00,
2013-01-23 17:51:00,72.2,54.0,30.11,South,191,3.0,8.0,53,0.00,,,0.00,weatherlink.com 1.10,2013-01-23 23:51:00,
2013-01-23 18:06:00,71.0,54.0,30.12,South,191,5.0,7.0,55,0.00,,,0.00,weatherlink.com 1.10,2013-01-24 00:06:00,
2013-01-23 18:21:00,69.3,54.0,30.11,South,191,2.0,3.0,58,0.00,,,0.00,weatherlink.com 1.10,2013-01-24 00:21:00,
2013-01-23 18:36:00,67.6,54.0,30.11,South,191,4.0,6.0,62,0.00,,,0.00,weatherlink.com 1.10,2013-01-24 00:36:00,
2013-01-23 18:51:00,66.8,54.0,30.12,South,191,3.0,5.0,64,0.00,,,0.00,weatherlink.com 1.10,2013-01-24 00:51:00,
2013-01-23 19:06:00,65.8,54.0,30.12,South,191,4.0,4.0,66,0.00,,,0.00,weatherlink.com 1.10,2013-01-24 01:06:00,
2013-01-23 19:21:00,65.0,54.0,30.12,South,191,1.0,5.0,67,0.00,,,0.00,weatherlink.com 1.10,2013-01-24 01:21:00,
2013-01-23 19:36:00,64.0,54.0,30.12,South,191,1.0,3.0,69,0.00,,,0.00,weatherlink.com 1.10,2013-01-24 01:36:00,
2013-01-23 19:51:00,63.6,54.0,30.13,South,191,1.0,4.0,70,0.00,,,0.00,weatherlink.com 1.10,2013-01-24 01:51:00,
2013-01-23 20:06:00,63.0,53.0,30.13,South,191,0.0,1.0,71,0.00,,,0.00,weatherlink.com 1.10,2013-01-24 02:06:00,
2013-01-23 20:21:00,61.8,53.0,30.14,South,191,0.0,0.0,73,0.00,,,0.00,weatherlink.com 1.10,2013-01-24 02:21:00,
2013-01-23 20:36:00,60.7,53.0,30.14,South,191,0.0,0.0,75,0.00,,,0.00,weatherlink.com 1.10,2013-01-24 02:36:00,
2013-01-23 20:51:00,59.4,52.0,30.15,South,191,0.0,0.0,77,0.00,,,0.00,weatherlink.com 1.10,2013-01-24 02:51:00,
2013-01-23 21:06:00,58.7,52.0,30.14,South,191,0.0,0.0,79,0.00,,,0.00,weatherlink.com 1.10,2013-01-24 03:06:00,
2013-01-23 21:21:00,58.0,52.0,30.14,South,191,0.0,1.0,81,0.00,,,0.00,weatherlink.com 1.10,2013-01-24 03:21:00,
2013-01-23 21:36:00,58.0,52.0,30.14,South,191,1.0,3.0,81,0.00,,,0.00,weatherlink.com 1.10,2013-01-24 03:36:00,
2013-01-23 21:51:00,57.8,52.0,30.14,South,191,0.0,0.0,81,0.00,,,0.00,weatherlink.com 1.10,2013-01-24 03:51:00,
2013-01-23 22:06:00,57.0,52.0,30.14,South,191,0.0,1.0,82,0.00,,,0.00,weatherlink.com 1.10,2013-01-24 04:06:00,
2013-01-23 22:21:00,56.4,52.0,30.14,South,191,0.0,0.0,84,0.00,,,0.00,weatherlink.com 1.10,2013-01-24 04:21:00,